Terminal Aerodrome Forecast
Issued by NWS

Current Version | Previous Version | Graphics & Text | Print | Product List | Glossary On
Versions: 1 2 3 4 5 6 7 8 9 10 11 12 13 14 15 16 17 18 19 20 21 22
295
FTUS41 KRLX 080304 AAA
TAFCKB
TAF AMD
KCKB 080304Z 0803/0824 00000KT P6SM OVC110
     FM081300 24006KT P6SM BKN070
     FM081600 25010KT P6SM BKN100
     FM081700 26012G21KT P6SM SCT040
     FM082100 27011G17KT P6SM BKN040=

USA.gov is the U.S. government's official web portal to all federal, state and local government web resources and services.